Time;durP1;ratioP1;P1;durP2;ratioP2;P2;SDS_P1;SDS_P2;PMS_P1;PMS_P2;Temp;Humidity;BMP_temperature;BMP_pressure;BME280_temperature;BME280_humidity;BME280_pressure;Samples;Min_cycle;Max_cycle;Signal;HPM_P1;HPM_P2
2021/11/23 00:01:44;;;;;;;4.20;2.70;;;6.40;99.90;;;;;;5045333;28;20184;-54
2021/11/23 00:04:09;;;;;;;3.40;2.90;;;6.30;99.90;;;;;;5046407;28;20978;-56
2021/11/23 00:06:37;;;;;;;3.80;3.17;;;6.20;99.90;;;;;;5045172;28;20188;-57
2021/11/23 00:09:03;;;;;;;4.30;2.43;;;6.20;99.90;;;;;;5045102;28;20285;-57
2021/11/23 00:11:29;;;;;;;3.50;3.20;;;6.20;99.90;;;;;;5045197;28;20458;-58
2021/11/23 00:13:55;;;;;;;3.70;2.50;;;6.20;99.90;;;;;;5042623;28;20932;-55
2021/11/23 00:16:20;;;;;;;3.53;2.70;;;6.10;99.90;;;;;;5044546;28;20187;-55
2021/11/23 00:18:47;;;;;;;2.87;2.60;;;5.90;99.90;;;;;;5043877;28;20211;-56
2021/11/23 00:21:14;;;;;;;3.93;2.90;;;5.90;99.90;;;;;;5042679;28;20208;-56
2021/11/23 00:23:40;;;;;;;4.77;2.37;;;5.90;99.90;;;;;;5045955;28;20991;-57
2021/11/23 00:26:06;;;;;;;3.17;2.87;;;5.80;99.90;;;;;;5043781;28;20435;-56
2021/11/23 00:28:31;;;;;;;4.90;3.07;;;5.80;99.90;;;;;;5046151;28;20535;-54
2021/11/23 00:30:57;;;;;;;3.70;2.80;;;5.90;99.90;;;;;;5043293;28;20226;-56
2021/11/23 00:33:23;;;;;;;3.60;2.73;;;5.80;99.90;;;;;;5044399;28;20193;-56
2021/11/23 00:35:49;;;;;;;3.70;2.77;;;5.70;99.90;;;;;;5044203;28;20176;-58
2021/11/23 00:38:16;;;;;;;3.50;2.77;;;5.80;99.90;;;;;;5045674;28;20939;-55
2021/11/23 00:40:43;;;;;;;4.40;3.27;;;5.90;99.90;;;;;;5045616;28;20446;-56
2021/11/23 00:43:10;;;;;;;3.20;2.90;;;5.70;99.90;;;;;;5041579;28;20986;-57
2021/11/23 00:45:36;;;;;;;3.60;2.83;;;5.60;99.90;;;;;;5043592;28;20434;-55
2021/11/23 00:48:03;;;;;;;3.60;3.17;;;5.60;99.90;;;;;;5046120;28;20482;-58
2021/11/23 00:50:31;;;;;;;3.73;3.10;;;5.60;99.90;;;;;;5044859;28;20457;-56
2021/11/23 00:52:56;;;;;;;3.20;2.70;;;5.50;99.90;;;;;;5042548;28;20516;-56
2021/11/23 00:55:22;;;;;;;3.40;2.60;;;5.50;99.90;;;;;;5044036;28;20458;-56
2021/11/23 00:57:48;;;;;;;4.17;2.67;;;5.50;99.90;;;;;;5041352;28;20180;-57
2021/11/23 01:00:14;;;;;;;3.40;3.10;;;5.40;99.90;;;;;;5042676;28;20211;-53
2021/11/23 01:02:40;;;;;;;3.60;2.50;;;5.30;99.90;;;;;;5042453;28;20212;-55
2021/11/23 01:05:07;;;;;;;4.80;2.67;;;5.30;99.90;;;;;;5043266;28;20465;-54
2021/11/23 01:07:33;;;;;;;3.03;2.40;;;5.20;99.90;;;;;;5042699;28;20584;-57
2021/11/23 01:09:59;;;;;;;3.80;2.97;;;5.40;99.90;;;;;;5043862;28;20463;-56
2021/11/23 01:12:25;;;;;;;3.30;2.83;;;5.40;99.90;;;;;;5041132;28;20477;-57
2021/11/23 01:14:51;;;;;;;2.90;2.60;;;5.30;99.90;;;;;;5042176;28;20445;-56
2021/11/23 01:17:17;;;;;;;3.40;3.10;;;5.20;99.90;;;;;;5041390;28;20207;-57
2021/11/23 01:19:44;;;;;;;3.50;2.83;;;5.10;99.90;;;;;;5041633;28;20203;-57
2021/11/23 01:22:10;;;;;;;4.03;2.87;;;5.20;99.90;;;;;;5044729;28;20479;-54
2021/11/23 01:24:35;;;;;;;3.20;2.70;;;5.20;99.90;;;;;;5042059;28;20474;-56
2021/11/23 01:27:01;;;;;;;3.10;2.70;;;5.30;99.90;;;;;;5042825;28;20477;-57
2021/11/23 01:29:26;;;;;;;5.00;2.97;;;5.30;99.90;;;;;;5042958;28;20345;-54
2021/11/23 01:31:52;;;;;;;3.30;2.70;;;5.20;99.90;;;;;;5040534;28;20192;-58
2021/11/23 01:34:19;;;;;;;3.10;2.80;;;5.20;99.90;;;;;;5043090;28;20211;-55
2021/11/23 01:36:47;;;;;;;4.00;3.20;;;5.10;99.90;;;;;;5042423;28;20194;-57
2021/11/23 01:39:13;;;;;;;4.30;3.30;;;5.00;99.90;;;;;;5026388;22;20493;-61
2021/11/23 01:41:38;;;;;;;5.23;3.30;;;5.00;99.90;;;;;;4979916;28;20498;-61
2021/11/23 01:44:04;;;;;;;4.10;3.40;;;5.00;99.90;;;;;;4979042;28;20986;-61
2021/11/23 01:46:31;;;;;;;3.90;2.97;;;5.10;99.90;;;;;;4977253;28;20236;-62
2021/11/23 01:48:57;;;;;;;4.17;3.20;;;5.20;99.90;;;;;;4973646;28;20487;-61
2021/11/23 01:51:23;;;;;;;4.30;3.40;;;5.00;99.90;;;;;;4977532;28;20444;-61
2021/11/23 01:53:49;;;;;;;3.80;3.00;;;5.00;99.90;;;;;;4976648;28;20485;-61
2021/11/23 01:56:15;;;;;;;3.83;3.03;;;5.00;99.90;;;;;;4979819;28;20526;-61
2021/11/23 01:58:41;;;;;;;3.20;2.83;;;5.00;99.90;;;;;;4961842;28;20445;-61
2021/11/23 02:01:07;;;;;;;3.30;2.90;;;5.00;99.90;;;;;;4977129;28;20694;-61
2021/11/23 02:03:35;;;;;;;5.57;3.07;;;5.00;99.90;;;;;;4978389;28;20495;-61
2021/11/23 02:06:01;;;;;;;4.80;3.60;;;5.00;99.90;;;;;;4974081;28;20444;-61
2021/11/23 02:08:27;;;;;;;3.10;2.80;;;5.00;99.90;;;;;;4974362;28;20578;-61
2021/11/23 02:10:53;;;;;;;6.07;3.50;;;4.90;99.90;;;;;;4976020;28;20537;-61
2021/11/23 02:13:19;;;;;;;4.00;3.10;;;4.90;99.90;;;;;;4972985;28;20191;-61
2021/11/23 02:15:45;;;;;;;3.53;3.23;;;4.90;99.90;;;;;;4961028;28;20504;-61
2021/11/23 02:18:29;;;;;;;3.80;3.40;;;4.90;99.90;;;;;;4976843;28;20464;-61
2021/11/23 02:20:55;;;;;;;4.43;3.30;;;4.90;99.90;;;;;;4975619;28;20438;-61
2021/11/23 02:23:22;;;;;;;4.17;3.33;;;4.90;99.90;;;;;;4980536;28;20478;-61
2021/11/23 02:25:48;;;;;;;5.50;3.17;;;5.00;99.90;;;;;;4974591;28;20441;-61
2021/11/23 02:28:14;;;;;;;3.53;3.23;;;4.80;99.90;;;;;;4967895;28;20568;-61
2021/11/23 02:30:57;;;;;;;4.23;3.80;;;4.80;99.90;;;;;;4980623;28;20445;-61
2021/11/23 02:33:27;;;;;;;5.00;3.50;;;4.80;99.90;;;;;;4977129;28;20440;-61
2021/11/23 02:35:56;;;;;;;4.70;3.80;;;4.80;99.90;;;;;;4971301;28;20437;-61
2021/11/23 02:38:24;;;;;;;3.50;3.20;;;4.70;99.90;;;;;;4980833;28;20480;-61
2021/11/23 02:40:50;;;;;;;3.37;3.07;;;4.70;99.90;;;;;;4975986;28;20863;-61
2021/11/23 02:43:17;;;;;;;4.07;3.67;;;4.80;99.90;;;;;;4975363;28;20454;-61
2021/11/23 02:45:43;;;;;;;5.63;3.23;;;4.70;99.90;;;;;;4981351;28;20520;-61
2021/11/23 02:48:11;;;;;;;4.20;3.63;;;4.70;99.90;;;;;;4975539;28;20474;-61
2021/11/23 02:50:38;;;;;;;3.60;3.27;;;4.80;99.90;;;;;;4973563;28;20456;-61
2021/11/23 02:53:04;;;;;;;3.90;3.20;;;4.70;99.90;;;;;;4977047;28;20437;-61
2021/11/23 02:55:33;;;;;;;3.50;3.20;;;4.50;99.90;;;;;;4974586;28;20426;-61
2021/11/23 02:58:00;;;;;;;4.80;3.60;;;4.60;99.90;;;;;;4979066;28;20822;-61
2021/11/23 03:00:28;;;;;;;4.53;3.80;;;4.60;99.90;;;;;;4974306;28;20449;-61
2021/11/23 03:02:54;;;;;;;6.20;3.60;;;4.70;99.90;;;;;;4977424;28;20841;-61
2021/11/23 03:05:23;;;;;;;4.80;3.97;;;4.80;99.90;;;;;;4978792;28;20442;-61
2021/11/23 03:07:50;;;;;;;3.90;3.50;;;4.70;99.90;;;;;;4976341;28;20581;-61
2021/11/23 03:10:19;;;;;;;3.57;3.27;;;4.70;99.90;;;;;;4977122;28;20511;-61
2021/11/23 03:12:50;;;;;;;4.40;3.80;;;4.50;99.90;;;;;;4978312;28;20929;-61
2021/11/23 03:15:17;;;;;;;4.10;3.67;;;4.40;99.90;;;;;;4957601;28;21046;-61
2021/11/23 03:17:43;;;;;;;4.03;3.60;;;4.40;99.90;;;;;;4979539;28;20438;-61
2021/11/23 03:20:10;;;;;;;4.10;3.40;;;4.20;99.90;;;;;;4976330;28;20549;-61
2021/11/23 03:22:36;;;;;;;4.73;4.03;;;4.40;99.90;;;;;;4976034;28;20516;-61
2021/11/23 03:25:04;;;;;;;6.00;4.17;;;4.30;99.90;;;;;;4977810;28;20536;-61
2021/11/23 03:27:29;;;;;;;5.13;3.67;;;4.10;99.90;;;;;;4977501;28;20838;-61
2021/11/23 03:29:55;;;;;;;4.07;3.53;;;4.20;99.90;;;;;;4978826;28;20458;-61
2021/11/23 03:32:21;;;;;;;6.10;3.87;;;4.30;99.90;;;;;;4979756;28;20668;-61
2021/11/23 03:34:49;;;;;;;4.30;3.30;;;4.20;99.90;;;;;;4979332;28;21078;-61
2021/11/23 03:37:21;;;;;;;3.70;3.30;;;4.30;99.90;;;;;;4979456;28;20632;-61
2021/11/23 03:39:48;;;;;;;4.90;4.40;;;4.30;99.90;;;;;;4979705;28;20468;-62
2021/11/23 03:42:14;;;;;;;3.40;3.10;;;4.30;99.90;;;;;;4980186;28;20445;-61
2021/11/23 03:44:40;;;;;;;4.57;4.17;;;4.50;99.90;;;;;;4979508;28;20852;-61
2021/11/23 03:47:07;;;;;;;5.03;4.17;;;4.40;99.90;;;;;;4980032;28;20491;-61
2021/11/23 03:49:35;;;;;;;5.57;3.77;;;4.40;99.90;;;;;;4978723;28;20284;-61
2021/11/23 03:52:01;;;;;;;5.80;3.90;;;4.40;99.90;;;;;;4980328;28;20426;-61
2021/11/23 03:54:26;;;;;;;7.30;4.33;;;4.30;99.90;;;;;;4982378;28;20520;-61
2021/11/23 03:56:52;;;;;;;4.60;3.83;;;4.30;99.90;;;;;;4978229;28;20516;-61
2021/11/23 03:59:18;;;;;;;8.40;4.57;;;4.20;99.90;;;;;;4978102;28;20684;-61
2021/11/23 04:01:45;;;;;;;7.10;4.90;;;4.20;99.90;;;;;;4985127;28;20999;-61
2021/11/23 04:04:11;;;;;;;5.13;4.63;;;4.10;99.90;;;;;;4982076;28;20189;-61
2021/11/23 04:06:37;;;;;;;4.40;3.93;;;4.10;99.90;;;;;;4980792;28;20460;-61
2021/11/23 04:09:03;;;;;;;5.83;3.73;;;4.00;99.90;;;;;;4985902;28;20532;-61
2021/11/23 04:11:29;;;;;;;4.60;3.60;;;4.20;99.90;;;;;;4981175;28;20533;-61
2021/11/23 04:13:55;;;;;;;5.00;4.20;;;4.10;99.90;;;;;;4980882;28;20533;-61
2021/11/23 04:16:23;;;;;;;4.10;3.63;;;4.10;99.90;;;;;;4981922;28;20546;-61
2021/11/23 04:18:49;;;;;;;7.03;3.93;;;4.10;99.90;;;;;;4977840;28;21026;-61
2021/11/23 04:21:15;;;;;;;4.00;3.60;;;3.90;99.90;;;;;;4981271;28;20433;-61
2021/11/23 04:23:41;;;;;;;4.57;3.97;;;4.00;99.90;;;;;;4976849;28;20437;-62
2021/11/23 04:26:06;;;;;;;4.00;3.60;;;4.00;99.90;;;;;;4978120;28;20212;-61
2021/11/23 04:28:32;;;;;;;7.87;3.80;;;4.00;99.90;;;;;;4978940;28;20271;-61
2021/11/23 04:30:58;;;;;;;3.70;3.40;;;4.00;99.90;;;;;;4974169;28;20200;-62
2021/11/23 04:33:23;;;;;;;5.17;3.73;;;4.00;99.90;;;;;;4979060;28;20166;-61
2021/11/23 04:35:49;;;;;;;5.40;3.87;;;4.00;99.90;;;;;;4978522;28;20182;-61
2021/11/23 04:38:15;;;;;;;5.80;4.70;;;4.00;99.90;;;;;;4980873;28;20261;-59
2021/11/23 04:40:40;;;;;;;7.40;4.57;;;4.00;99.90;;;;;;4976763;28;20190;-60
2021/11/23 04:43:07;;;;;;;4.20;3.43;;;4.00;99.90;;;;;;4977259;28;20186;-60
2021/11/23 04:45:33;;;;;;;6.80;4.07;;;3.90;99.90;;;;;;4976202;28;20214;-61
2021/11/23 04:48:00;;;;;;;5.13;4.27;;;3.90;99.90;;;;;;4980961;28;20999;-61
2021/11/23 04:50:25;;;;;;;7.77;3.63;;;3.80;99.90;;;;;;4979676;28;20428;-61
2021/11/23 04:52:52;;;;;;;4.63;4.23;;;3.80;99.90;;;;;;4982473;28;20433;-61
2021/11/23 04:55:18;;;;;;;4.37;3.97;;;3.90;99.90;;;;;;4977616;28;20222;-61
2021/11/23 04:57:44;;;;;;;4.30;3.80;;;3.90;99.90;;;;;;4979348;28;20788;-61
2021/11/23 05:00:12;;;;;;;7.10;3.97;;;3.90;99.90;;;;;;4978930;28;20881;-61
2021/11/23 05:02:38;;;;;;;7.03;4.37;;;3.90;99.90;;;;;;4976101;28;20517;-61
2021/11/23 05:05:05;;;;;;;4.53;3.80;;;3.90;99.90;;;;;;4980462;28;20531;-61
2021/11/23 05:07:31;;;;;;;5.93;4.40;;;3.90;99.90;;;;;;4978470;28;20710;-61
2021/11/23 05:09:56;;;;;;;4.90;4.20;;;4.00;99.90;;;;;;4980065;28;20453;-61
2021/11/23 05:12:22;;;;;;;4.97;3.93;;;4.10;99.90;;;;;;4977849;28;20189;-61
2021/11/23 05:14:48;;;;;;;7.40;4.20;;;4.00;99.90;;;;;;4977718;28;20190;-61
2021/11/23 05:17:14;;;;;;;4.87;4.20;;;3.80;99.90;;;;;;4980627;28;20250;-61
2021/11/23 05:19:39;;;;;;;4.83;3.80;;;3.90;99.90;;;;;;4966323;28;20636;-61
2021/11/23 05:22:07;;;;;;;3.37;3.07;;;3.90;99.90;;;;;;4977336;28;20842;-61
2021/11/23 05:24:33;;;;;;;5.13;4.63;;;4.00;99.90;;;;;;4981032;28;20198;-61
2021/11/23 05:26:59;;;;;;;4.60;3.67;;;3.90;99.90;;;;;;4975615;28;20982;-61
2021/11/23 05:29:24;;;;;;;4.67;3.67;;;3.80;99.90;;;;;;4979301;28;20479;-61
2021/11/23 05:31:50;;;;;;;6.37;4.43;;;3.90;99.90;;;;;;4978920;28;20426;-61
2021/11/23 05:34:16;;;;;;;5.60;3.90;;;3.80;99.90;;;;;;4964883;28;20189;-61
2021/11/23 05:36:44;;;;;;;6.97;4.17;;;3.70;99.90;;;;;;4978042;28;20920;-60
2021/11/23 05:39:09;;;;;;;5.00;3.57;;;3.80;99.90;;;;;;4980562;28;20213;-60
2021/11/23 05:41:35;;;;;;;7.13;4.73;;;3.80;99.90;;;;;;4978069;28;20442;-60
2021/11/23 05:44:01;;;;;;;5.47;4.30;;;3.90;99.90;;;;;;4978315;28;20192;-60
2021/11/23 05:46:26;;;;;;;5.93;4.53;;;3.80;99.90;;;;;;4974944;28;20241;-61
2021/11/23 05:48:53;;;;;;;5.10;4.50;;;3.90;99.90;;;;;;4975820;28;20210;-60
2021/11/23 05:51:19;;;;;;;5.13;4.20;;;3.80;99.90;;;;;;4979561;28;20212;-60
2021/11/23 05:53:45;;;;;;;6.30;4.63;;;3.80;99.90;;;;;;4976198;28;20446;-60
2021/11/23 05:56:10;;;;;;;5.57;4.53;;;3.70;99.90;;;;;;4974347;28;20444;-60
2021/11/23 05:58:36;;;;;;;4.50;4.10;;;3.80;99.90;;;;;;4979738;28;20302;-60
2021/11/23 06:01:03;;;;;;;6.37;4.73;;;3.80;99.90;;;;;;4960045;28;20194;-61
2021/11/23 06:03:29;;;;;;;4.97;4.30;;;3.80;99.90;;;;;;4976080;28;20444;-60
2021/11/23 06:05:54;;;;;;;5.30;4.50;;;3.60;99.90;;;;;;4978038;28;20441;-60
2021/11/23 06:08:20;;;;;;;4.70;4.10;;;3.80;99.90;;;;;;4977933;28;20600;-61
2021/11/23 06:10:46;;;;;;;6.23;5.03;;;3.80;99.90;;;;;;4977380;28;20237;-61
2021/11/23 06:13:12;;;;;;;5.90;4.43;;;3.70;99.90;;;;;;4979118;28;20316;-60
2021/11/23 06:15:41;;;;;;;6.70;4.67;;;3.70;99.90;;;;;;4981395;28;20181;-60
2021/11/23 06:18:08;;;;;;;5.37;4.30;;;3.50;99.90;;;;;;4976945;28;20429;-60
2021/11/23 06:20:34;;;;;;;7.00;3.90;;;3.50;99.90;;;;;;4977104;28;20444;-60
2021/11/23 06:23:02;;;;;;;7.17;4.87;;;3.60;99.90;;;;;;4976688;28;20444;-61
2021/11/23 06:25:28;;;;;;;5.60;4.40;;;3.60;99.90;;;;;;4976193;28;20201;-61
2021/11/23 06:27:53;;;;;;;12.43;4.33;;;3.60;99.90;;;;;;4973618;28;20469;-60
2021/11/23 06:30:20;;;;;;;5.00;4.50;;;3.70;99.90;;;;;;4975225;28;20806;-60
2021/11/23 06:32:45;;;;;;;5.90;4.87;;;3.70;99.90;;;;;;4974396;28;20214;-60
2021/11/23 06:35:11;;;;;;;6.37;4.23;;;3.60;99.90;;;;;;4967140;28;20438;-61
2021/11/23 06:37:38;;;;;;;6.00;4.37;;;3.60;99.90;;;;;;4978675;28;20443;-61
2021/11/23 06:40:06;;;;;;;5.13;4.00;;;3.40;99.90;;;;;;4969968;28;20457;-60
2021/11/23 06:42:32;;;;;;;6.07;4.60;;;3.40;99.90;;;;;;4977769;28;20780;-60
2021/11/23 06:44:57;;;;;;;6.70;4.83;;;3.30;99.90;;;;;;4972721;28;20512;-61
2021/11/23 06:47:23;;;;;;;8.37;4.93;;;3.20;99.90;;;;;;4976825;28;20754;-61
2021/11/23 06:49:51;;;;;;;8.73;4.63;;;3.30;99.90;;;;;;4980096;28;20253;-61
2021/11/23 06:52:18;;;;;;;4.37;3.97;;;3.30;99.90;;;;;;4974300;28;20511;-60
2021/11/23 06:54:44;;;;;;;4.83;4.13;;;3.20;99.90;;;;;;4971539;28;20448;-60
2021/11/23 06:57:10;;;;;;;8.00;4.90;;;3.20;99.90;;;;;;4974373;28;20440;-59
2021/11/23 06:59:37;;;;;;;7.43;4.70;;;3.20;99.90;;;;;;4975272;28;20973;-60
2021/11/23 07:02:02;;;;;;;6.83;5.30;;;3.30;99.90;;;;;;4977715;28;20192;-60
2021/11/23 07:04:28;;;;;;;7.00;5.10;;;3.40;99.90;;;;;;4976540;28;20440;-60
2021/11/23 07:06:53;;;;;;;7.83;4.57;;;3.50;99.90;;;;;;4980203;28;20205;-60
2021/11/23 07:09:19;;;;;;;5.10;4.13;;;3.20;99.90;;;;;;4979386;28;20210;-60
2021/11/23 07:11:45;;;;;;;5.17;4.50;;;3.20;99.90;;;;;;4980940;28;20571;-60
2021/11/23 07:14:12;;;;;;;7.43;5.37;;;3.20;99.90;;;;;;4979884;28;20201;-60
2021/11/23 07:16:39;;;;;;;7.50;4.77;;;3.20;99.90;;;;;;4980463;28;20958;-63
2021/11/23 07:19:05;;;;;;;11.43;5.60;;;3.30;99.90;;;;;;4963626;28;21226;-60
2021/11/23 07:21:30;;;;;;;11.10;5.40;;;3.20;99.90;;;;;;4980055;28;20473;-61
2021/11/23 07:23:57;;;;;;;5.50;4.50;;;3.10;99.90;;;;;;4980541;28;20514;-61
2021/11/23 07:26:24;;;;;;;14.83;4.30;;;3.20;99.90;;;;;;4978622;28;20193;-61
2021/11/23 07:28:49;;;;;;;7.70;5.40;;;3.20;99.90;;;;;;4973564;28;20484;-61
2021/11/23 07:31:15;;;;;;;6.00;4.77;;;3.30;99.90;;;;;;4968940;28;20495;-60
2021/11/23 07:33:41;;;;;;;9.67;4.80;;;3.30;99.90;;;;;;4975487;28;20193;-60
2021/11/23 07:36:06;;;;;;;8.10;4.80;;;3.40;99.90;;;;;;4978173;28;20194;-61
2021/11/23 07:38:32;;;;;;;5.20;4.33;;;3.40;99.90;;;;;;4978804;28;20649;-61
2021/11/23 07:40:58;;;;;;;6.33;4.77;;;3.40;99.90;;;;;;4980353;28;20290;-61
2021/11/23 07:43:23;;;;;;;6.00;5.43;;;3.40;99.90;;;;;;4977563;28;20197;-62
2021/11/23 07:45:49;;;;;;;7.10;5.70;;;3.50;99.90;;;;;;4980150;28;20186;-61
2021/11/23 07:48:15;;;;;;;6.13;4.90;;;3.60;99.90;;;;;;4977803;28;20244;-61
2021/11/23 07:50:41;;;;;;;7.80;5.23;;;3.50;99.90;;;;;;4976371;28;20175;-61
2021/11/23 07:53:07;;;;;;;8.70;4.93;;;3.60;99.90;;;;;;4981920;28;20447;-62
2021/11/23 07:55:33;;;;;;;6.87;5.67;;;3.60;99.90;;;;;;4981314;28;20421;-62
2021/11/23 07:57:59;;;;;;;12.10;6.07;;;3.60;99.90;;;;;;4976007;28;20447;-59
2021/11/23 08:00:26;;;;;;;10.87;5.33;;;3.70;99.90;;;;;;4980488;28;20435;-60
2021/11/23 08:02:52;;;;;;;8.00;5.70;;;3.80;99.90;;;;;;4977240;28;20437;-60
2021/11/23 08:05:18;;;;;;;7.03;5.40;;;3.80;99.90;;;;;;4976257;28;20445;-60
2021/11/23 08:07:44;;;;;;;16.57;11.13;;;3.90;99.90;;;;;;4968754;28;20209;-61
2021/11/23 08:10:09;;;;;;;12.33;8.80;;;3.80;99.90;;;;;;4973806;28;20655;-60
2021/11/23 08:12:35;;;;;;;10.63;6.73;;;3.90;99.90;;;;;;4977650;28;20189;-61
2021/11/23 08:15:00;;;;;;;8.10;6.10;;;3.90;99.90;;;;;;4974496;28;20471;-61
2021/11/23 08:17:26;;;;;;;10.90;6.83;;;3.90;99.90;;;;;;4977603;28;20252;-61
2021/11/23 08:19:52;;;;;;;9.50;6.60;;;3.90;99.90;;;;;;4974849;28;20629;-61
2021/11/23 08:22:18;;;;;;;8.80;6.67;;;3.90;99.90;;;;;;4960600;28;20447;-61
2021/11/23 08:24:43;;;;;;;11.50;6.70;;;3.90;99.90;;;;;;4974544;28;20183;-62
2021/11/23 08:27:09;;;;;;;7.63;6.10;;;3.90;99.90;;;;;;4974015;28;20200;-62
2021/11/23 08:29:35;;;;;;;18.07;7.57;;;3.70;99.90;;;;;;4973379;28;20327;-62
2021/11/23 08:32:02;;;;;;;9.30;6.80;;;3.70;99.90;;;;;;4979549;28;20881;-61
2021/11/23 08:34:28;;;;;;;9.63;6.77;;;3.70;99.90;;;;;;4976253;28;20620;-61
2021/11/23 08:36:54;;;;;;;8.93;7.00;;;3.70;99.90;;;;;;4977374;28;20811;-62
2021/11/23 08:39:20;;;;;;;9.73;7.87;;;3.80;99.90;;;;;;4976852;28;20480;-61
2021/11/23 08:41:47;;;;;;;10.70;6.40;;;3.80;99.90;;;;;;4975644;28;20433;-61
2021/11/23 08:44:13;;;;;;;12.93;6.97;;;3.80;99.90;;;;;;4978495;28;20190;-61
2021/11/23 08:46:39;;;;;;;10.70;6.93;;;4.00;99.90;;;;;;4975206;28;20889;-61
2021/11/23 08:49:05;;;;;;;9.27;6.77;;;4.10;99.90;;;;;;4969269;28;20476;-61
2021/11/23 08:51:36;;;;;;;15.60;6.83;;;4.30;99.90;;;;;;4968033;28;20186;-62
2021/11/23 08:54:03;;;;;;;9.83;6.90;;;4.30;99.90;;;;;;4978388;28;20189;-61
2021/11/23 08:56:38;;;;;;;8.50;6.47;;;4.30;99.90;;;;;;4978323;28;20448;-61
2021/11/23 08:59:09;;;;;;;8.60;7.10;;;4.30;99.90;;;;;;4974801;28;20448;-61
2021/11/23 09:01:36;;;;;;;11.23;7.67;;;4.40;99.90;;;;;;4959311;28;21021;-61
2021/11/23 09:04:04;;;;;;;8.73;6.20;;;4.40;99.90;;;;;;4975704;28;20440;-61
2021/11/23 09:06:32;;;;;;;8.90;6.60;;;4.50;99.90;;;;;;4978466;28;20445;-61
2021/11/23 09:08:59;;;;;;;7.83;7.00;;;4.50;99.90;;;;;;4976553;28;20620;-61
2021/11/23 09:11:26;;;;;;;9.37;6.43;;;4.60;99.90;;;;;;4968073;28;20472;-61
2021/11/23 09:13:54;;;;;;;14.63;7.50;;;4.60;99.90;;;;;;4972892;28;20812;-61
2021/11/23 09:16:21;;;;;;;10.80;7.37;;;4.60;99.90;;;;;;4975613;28;20486;-61
2021/11/23 09:18:47;;;;;;;8.17;6.33;;;4.60;99.90;;;;;;4977373;28;20651;-61
2021/11/23 09:21:13;;;;;;;9.83;6.53;;;4.70;99.90;;;;;;4976998;28;20445;-62
2021/11/23 09:23:39;;;;;;;8.43;7.33;;;4.80;99.90;;;;;;4977888;28;20309;-61
2021/11/23 09:26:04;;;;;;;8.60;6.40;;;4.80;99.90;;;;;;4974477;28;20620;-61
2021/11/23 09:28:30;;;;;;;10.83;7.20;;;4.80;99.90;;;;;;4973749;28;20225;-61
2021/11/23 09:30:56;;;;;;;10.13;6.87;;;4.60;99.90;;;;;;4975951;28;20179;-61
2021/11/23 09:33:22;;;;;;;9.40;7.27;;;4.70;99.90;;;;;;4977655;28;20735;-61
2021/11/23 09:35:47;;;;;;;8.73;6.63;;;4.80;99.90;;;;;;4979867;28;20182;-61
2021/11/23 09:38:13;;;;;;;11.10;7.87;;;5.00;99.90;;;;;;4974127;28;20206;-61
2021/11/23 09:40:40;;;;;;;8.07;6.40;;;5.10;99.90;;;;;;4974110;28;20204;-61
2021/11/23 09:43:05;;;;;;;8.30;7.00;;;5.10;99.90;;;;;;4975132;28;20177;-61
2021/11/23 09:45:31;;;;;;;10.90;6.80;;;5.20;99.90;;;;;;4972803;28;20441;-61
2021/11/23 09:48:02;;;;;;;10.80;8.73;;;5.10;99.90;;;;;;4974945;28;20300;-61
2021/11/23 09:50:27;;;;;;;11.27;7.53;;;5.10;99.90;;;;;;4967134;28;20434;-61
2021/11/23 09:52:53;;;;;;;10.93;8.13;;;5.20;99.90;;;;;;4967606;28;20484;-61
2021/11/23 09:55:19;;;;;;;10.23;7.20;;;5.20;99.90;;;;;;4977491;28;20197;-60
2021/11/23 09:57:44;;;;;;;10.67;7.87;;;5.30;99.90;;;;;;4972300;28;20190;-61
2021/11/23 10:00:37;;;;;;;11.87;7.97;;;5.20;99.90;;;;;;4977001;28;20206;-61
2021/11/23 10:03:26;;;;;;;10.80;7.60;;;5.30;99.90;;;;;;4976849;28;20276;-61
2021/11/23 10:06:02;;;;;;;10.20;7.23;;;5.30;99.90;;;;;;4975323;28;20511;-61
2021/11/23 10:08:28;;;;;;;11.97;8.60;;;5.30;99.90;;;;;;4973394;28;20520;-61
2021/11/23 10:10:54;;;;;;;11.90;8.07;;;5.40;99.90;;;;;;4978055;28;20417;-61
2021/11/23 10:13:22;;;;;;;7.73;6.67;;;5.50;99.90;;;;;;4976476;28;20432;-61
2021/11/23 10:15:49;;;;;;;11.70;7.63;;;5.50;99.90;;;;;;4975425;28;20429;-61
2021/11/23 10:18:23;;;;;;;10.30;8.10;;;5.50;99.90;;;;;;4976526;28;21373;-61
2021/11/23 10:20:53;;;;;;;9.40;7.00;;;5.50;99.90;;;;;;4972334;28;20433;-62
2021/11/23 10:23:20;;;;;;;13.17;8.50;;;5.50;99.90;;;;;;4978610;28;20440;-61
2021/11/23 10:25:48;;;;;;;7.50;6.70;;;5.50;99.90;;;;;;4959147;28;20797;-61
2021/11/23 10:28:15;;;;;;;10.90;7.60;;;5.70;99.90;;;;;;4973036;28;21036;-61
2021/11/23 10:30:44;;;;;;;11.27;9.93;;;5.70;99.90;;;;;;4974288;28;20880;-61
2021/11/23 10:33:11;;;;;;;18.73;7.30;;;5.80;99.90;;;;;;4973680;28;20440;-61
2021/11/23 10:35:42;;;;;;;8.77;7.20;;;5.80;99.90;;;;;;4974180;28;20426;-61
2021/11/23 10:38:08;;;;;;;10.60;6.70;;;5.90;99.90;;;;;;4976387;28;20460;-61
2021/11/23 10:40:36;;;;;;;10.00;7.40;;;6.10;99.90;;;;;;4972504;28;20454;-61
2021/11/23 10:43:09;;;;;;;7.57;6.87;;;6.10;99.90;;;;;;4975529;28;20474;-61
2021/11/23 10:45:41;;;;;;;10.40;7.37;;;5.90;99.90;;;;;;4976988;28;20450;-61
2021/11/23 10:48:10;;;;;;;8.03;7.03;;;5.90;99.90;;;;;;4975843;28;20469;-62
2021/11/23 10:50:38;;;;;;;8.50;7.10;;;6.10;99.90;;;;;;4970186;28;20448;-61
2021/11/23 10:53:12;;;;;;;7.57;6.53;;;6.20;99.90;;;;;;4976891;28;20792;-61
2021/11/23 10:55:44;;;;;;;10.37;6.77;;;6.00;99.90;;;;;;4972855;28;20445;-61
2021/11/23 10:58:12;;;;;;;8.53;7.37;;;6.10;99.90;;;;;;4974850;28;20552;-61
2021/11/23 11:00:44;;;;;;;7.83;6.90;;;6.20;99.90;;;;;;4973429;28;20442;-61
2021/11/23 11:03:12;;;;;;;7.90;6.53;;;6.10;99.90;;;;;;4976054;28;20444;-61
2021/11/23 11:05:40;;;;;;;9.53;6.83;;;6.20;99.90;;;;;;4973344;28;20534;-62
2021/11/23 11:08:06;;;;;;;11.10;7.10;;;6.20;99.90;;;;;;4976073;28;20846;-61
2021/11/23 11:10:34;;;;;;;9.87;6.57;;;6.20;99.90;;;;;;4973887;28;20464;-60
2021/11/23 11:13:02;;;;;;;10.63;7.00;;;6.30;99.90;;;;;;4962713;28;20441;-59
2021/11/23 11:15:44;;;;;;;9.83;6.60;;;6.20;99.90;;;;;;4974615;28;20556;-60
2021/11/23 11:18:12;;;;;;;8.63;6.53;;;6.30;99.90;;;;;;4960740;28;20778;-62
2021/11/23 11:20:58;;;;;;;10.10;6.50;;;6.40;99.90;;;;;;4974703;28;20448;-60
2021/11/23 11:23:29;;;;;;;9.20;6.57;;;6.50;99.90;;;;;;4976408;28;20468;-60
2021/11/23 11:26:09;;;;;;;8.40;6.97;;;6.60;99.90;;;;;;4972251;28;20438;-60
2021/11/23 11:28:49;;;;;;;8.07;6.57;;;6.50;99.90;;;;;;4975509;28;20481;-61
2021/11/23 11:31:38;;;;;;;8.73;6.00;;;6.60;99.90;;;;;;4975486;28;20742;-61
2021/11/23 11:34:26;;;;;;;6.70;5.50;;;6.70;99.90;;;;;;4972574;28;20441;-61
2021/11/23 11:37:00;;;;;;;5.80;5.20;;;6.80;99.90;;;;;;4975011;28;20436;-62
2021/11/23 11:39:38;;;;;;;7.53;6.40;;;7.00;99.90;;;;;;4974477;28;20522;-60
2021/11/23 11:42:05;;;;;;;6.10;5.37;;;7.30;99.90;;;;;;4972126;28;20448;-60
2021/11/23 11:44:47;;;;;;;9.10;6.37;;;7.60;99.90;;;;;;4973569;28;21134;-59
2021/11/23 11:47:16;;;;;;;8.10;6.33;;;8.00;99.90;;;;;;4973271;28;20441;-62
2021/11/23 11:49:53;;;;;;;6.37;5.60;;;8.30;99.90;;;;;;4977109;28;20531;-60
2021/11/23 11:52:22;;;;;;;9.80;5.83;;;8.30;99.90;;;;;;4978838;28;20440;-60
2021/11/23 11:55:18;;;;;;;5.80;5.30;;;8.30;99.90;;;;;;4978082;28;20445;-60
2021/11/23 11:57:46;;;;;;;6.77;5.40;;;8.40;99.90;;;;;;4973646;28;20788;-59
2021/11/23 12:00:28;;;;;;;7.90;5.70;;;9.00;99.90;;;;;;4978081;28;20446;-60
2021/11/23 12:03:15;;;;;;;5.40;4.90;;;10.50;99.90;;;;;;4975571;28;20774;-59
2021/11/23 12:06:12;;;;;;;6.63;5.10;;;12.00;99.90;;;;;;4977965;28;20445;-60
2021/11/23 12:08:37;;;;;;;6.70;5.50;;;13.80;99.90;;;;;;4976243;28;21078;-59
2021/11/23 12:11:09;;;;;;;5.57;4.50;;;15.80;99.90;;;;;;4977313;28;20449;-59
2021/11/23 12:14:01;;;;;;;4.80;4.40;;;17.50;97.60;;;;;;4978817;28;20425;-59
2021/11/23 12:16:42;;;;;;;4.97;4.53;;;19.30;91.70;;;;;;4977754;28;20432;-60
2021/11/23 12:19:11;;;;;;;4.97;4.57;;;20.50;78.40;;;;;;4979720;28;20484;-59
2021/11/23 12:21:57;;;;;;;4.50;4.10;;;20.50;72.70;;;;;;4973658;28;20492;-59
2021/11/23 12:24:29;;;;;;;4.67;4.27;;;21.70;65.60;;;;;;4977578;28;20441;-59
2021/11/23 12:26:56;;;;;;;4.73;3.93;;;22.90;60.20;;;;;;4974227;28;20426;-59
2021/11/23 12:29:27;;;;;;;5.70;4.93;;;23.90;56.00;;;;;;4973483;28;20457;-60
2021/11/23 12:31:53;;;;;;;4.30;3.90;;;24.10;52.60;;;;;;4977850;28;20433;-59
2021/11/23 12:34:19;;;;;;;6.50;3.90;;;24.60;52.10;;;;;;4973470;28;20442;-60
2021/11/23 12:36:49;;;;;;;5.23;4.40;;;24.60;49.90;;;;;;4971328;28;20562;-60
2021/11/23 12:39:26;;;;;;;5.30;4.80;;;25.40;49.40;;;;;;4982772;28;20476;-60
2021/11/23 12:42:01;;;;;;;4.43;4.00;;;25.90;47.20;;;;;;4976338;28;20935;-60
2021/11/23 12:44:34;;;;;;;4.87;4.13;;;26.60;45.70;;;;;;4975904;28;20443;-60
2021/11/23 12:47:11;;;;;;;4.57;4.10;;;26.90;44.20;;;;;;4977962;28;20441;-60
2021/11/23 12:49:39;;;;;;;6.23;4.60;;;27.10;42.90;;;;;;4976385;28;20448;-58
2021/11/23 12:52:10;;;;;;;4.80;3.97;;;26.80;42.70;;;;;;4971371;28;20452;-61
2021/11/23 12:54:41;;;;;;;4.97;4.57;;;26.90;41.80;;;;;;4979169;28;20438;-61
2021/11/23 12:57:15;;;;;;;4.20;3.90;;;26.60;41.10;;;;;;4971893;28;20540;-60
2021/11/23 12:59:47;;;;;;;4.73;4.33;;;26.00;41.50;;;;;;4975197;28;20485;-60